Fairfax, Missouri
Current Conditions -  °F | °C
As of 8:27 AM on Thursday 18 Dec 2014 (Local Time) from KFNB Reporting Station
Light Snow Light Snow  
Wind Chill: 20°   Ceiling: 2200
Heat Index: 27°   Visibility: 1.7mi
Dew Point: 24°   Wind: 6mph
Humidity: 89%   Direction: 80°E
Pressure: 30.24"   Gusts: NA
Location:  40.34°N, 95.39°W
Report Text: KFNB 181427Z AUTO 08005KT 1 3/4SM -SN BR FEW006 OVC022 M03/M04 A3024 RMK AO2 P0000 T10281044
Loading
Personal Weather Stations






























Interactive Weather Map New forecast layout! Learn more

10-Day Weather Forecast

Advertisements
Track Severe Weather on mobile